sensor_id;sensor_type;location;lat;lon;timestamp;temperature;humidity
8792;DHT22;4432;50.890;4.744;2022-09-09T00:03:45;14.20;99.90
8792;DHT22;4432;50.890;4.744;2022-09-09T00:06:24;14.20;99.90
8792;DHT22;4432;50.890;4.744;2022-09-09T00:08:59;14.20;99.90
8792;DHT22;4432;50.890;4.744;2022-09-09T00:18:16;14.10;99.90
8792;DHT22;4432;50.890;4.744;2022-09-09T00:20:23;14.10;99.90
8792;DHT22;4432;50.890;4.744;2022-09-09T00:25:58;14.00;99.90
8792;DHT22;4432;50.890;4.744;2022-09-09T00:28:27;14.00;99.90
8792;DHT22;4432;50.890;4.744;2022-09-09T00:31:04;14.10;99.90
8792;DHT22;4432;50.890;4.744;2022-09-09T00:33:34;14.10;99.90
8792;DHT22;4432;50.890;4.744;2022-09-09T00:36:01;14.10;99.90
8792;DHT22;4432;50.890;4.744;2022-09-09T00:38:37;14.10;99.90
8792;DHT22;4432;50.890;4.744;2022-09-09T00:41:21;14.10;99.90
8792;DHT22;4432;50.890;4.744;2022-09-09T00:44:00;14.00;99.90
8792;DHT22;4432;50.890;4.744;2022-09-09T00:49:43;13.90;99.90
8792;DHT22;4432;50.890;4.744;2022-09-09T00:57:38;13.90;99.90
8792;DHT22;4432;50.890;4.744;2022-09-09T01:00:30;14.00;99.90
8792;DHT22;4432;50.890;4.744;2022-09-09T01:03:38;14.00;99.90
8792;DHT22;4432;50.890;4.744;2022-09-09T01:06:32;14.10;99.90
8792;DHT22;4432;50.890;4.744;2022-09-09T01:19:50;14.20;99.90
8792;DHT22;4432;50.890;4.744;2022-09-09T01:25:22;14.20;99.90
8792;DHT22;4432;50.890;4.744;2022-09-09T01:27:53;14.10;99.90
8792;DHT22;4432;50.890;4.744;2022-09-09T01:30:21;14.20;99.90
8792;DHT22;4432;50.890;4.744;2022-09-09T01:32:49;14.10;99.90
8792;DHT22;4432;50.890;4.744;2022-09-09T01:35:28;14.20;99.90
8792;DHT22;4432;50.890;4.744;2022-09-09T01:37:55;14.20;99.90
8792;DHT22;4432;50.890;4.744;2022-09-09T01:40:23;14.10;99.90
8792;DHT22;4432;50.890;4.744;2022-09-09T01:42:49;14.10;99.90
8792;DHT22;4432;50.890;4.744;2022-09-09T01:45:15;14.20;99.90
8792;DHT22;4432;50.890;4.744;2022-09-09T01:47:41;14.20;99.90
8792;DHT22;4432;50.890;4.744;2022-09-09T01:50:08;14.20;99.90
8792;DHT22;4432;50.890;4.744;2022-09-09T01:52:37;14.20;99.90
8792;DHT22;4432;50.890;4.744;2022-09-09T01:55:04;14.20;99.90
8792;DHT22;4432;50.890;4.744;2022-09-09T01:57:35;14.20;99.90
8792;DHT22;4432;50.890;4.744;2022-09-09T02:08:11;14.40;99.90
8792;DHT22;4432;50.890;4.744;2022-09-09T02:11:05;14.40;99.90
8792;DHT22;4432;50.890;4.744;2022-09-09T02:13:35;14.50;99.90
8792;DHT22;4432;50.890;4.744;2022-09-09T02:16:08;14.60;99.90
8792;DHT22;4432;50.890;4.744;2022-09-09T02:19:06;14.60;99.90
8792;DHT22;4432;50.890;4.744;2022-09-09T02:21:32;14.60;99.90
8792;DHT22;4432;50.890;4.744;2022-09-09T02:24:02;14.60;99.90
8792;DHT22;4432;50.890;4.744;2022-09-09T02:26:31;14.60;99.90
8792;DHT22;4432;50.890;4.744;2022-09-09T02:28:59;14.60;99.90
8792;DHT22;4432;50.890;4.744;2022-09-09T02:31:27;14.70;99.90
8792;DHT22;4432;50.890;4.744;2022-09-09T02:33:59;14.70;99.90
8792;DHT22;4432;50.890;4.744;2022-09-09T02:36:29;14.60;99.90
8792;DHT22;4432;50.890;4.744;2022-09-09T02:38:56;14.60;99.90
8792;DHT22;4432;50.890;4.744;2022-09-09T02:41:34;14.60;99.90
8792;DHT22;4432;50.890;4.744;2022-09-09T02:44:01;14.60;99.90
8792;DHT22;4432;50.890;4.744;2022-09-09T02:46:36;14.60;99.90
8792;DHT22;4432;50.890;4.744;2022-09-09T02:49:16;14.50;99.90
8792;DHT22;4432;50.890;4.744;2022-09-09T02:52:13;14.50;99.90
8792;DHT22;4432;50.890;4.744;2022-09-09T02:54:41;14.60;99.90
8792;DHT22;4432;50.890;4.744;2022-09-09T02:57:21;14.60;99.90
8792;DHT22;4432;50.890;4.744;2022-09-09T02:59:50;14.60;99.90
8792;DHT22;4432;50.890;4.744;2022-09-09T03:02:17;14.60;99.90
8792;DHT22;4432;50.890;4.744;2022-09-09T03:04:44;14.60;99.90
8792;DHT22;4432;50.890;4.744;2022-09-09T03:07:11;14.60;99.90
8792;DHT22;4432;50.890;4.744;2022-09-09T03:09:37;14.60;99.90
8792;DHT22;4432;50.890;4.744;2022-09-09T03:12:03;14.60;99.90
8792;DHT22;4432;50.890;4.744;2022-09-09T03:14:30;14.60;99.90
8792;DHT22;4432;50.890;4.744;2022-09-09T03:16:56;14.70;99.90
8792;DHT22;4432;50.890;4.744;2022-09-09T03:19:23;14.70;99.90
8792;DHT22;4432;50.890;4.744;2022-09-09T03:21:50;14.70;99.90
8792;DHT22;4432;50.890;4.744;2022-09-09T03:24:15;14.70;99.90
8792;DHT22;4432;50.890;4.744;2022-09-09T03:26:41;14.70;99.90
8792;DHT22;4432;50.890;4.744;2022-09-09T03:29:11;14.70;99.90
8792;DHT22;4432;50.890;4.744;2022-09-09T03:31:38;14.80;99.90
8792;DHT22;4432;50.890;4.744;2022-09-09T03:34:04;14.70;99.90
8792;DHT22;4432;50.890;4.744;2022-09-09T03:36:30;14.60;99.90
8792;DHT22;4432;50.890;4.744;2022-09-09T03:38:56;14.60;99.90
8792;DHT22;4432;50.890;4.744;2022-09-09T03:41:23;14.60;99.90
8792;DHT22;4432;50.890;4.744;2022-09-09T03:43:52;14.60;99.90
8792;DHT22;4432;50.890;4.744;2022-09-09T03:46:23;14.60;99.90
8792;DHT22;4432;50.890;4.744;2022-09-09T03:48:50;14.70;99.90
8792;DHT22;4432;50.890;4.744;2022-09-09T03:51:16;14.70;99.90
8792;DHT22;4432;50.890;4.744;2022-09-09T03:53:42;14.80;99.90
8792;DHT22;4432;50.890;4.744;2022-09-09T03:56:08;14.80;99.90
8792;DHT22;4432;50.890;4.744;2022-09-09T03:58:35;14.80;99.90
8792;DHT22;4432;50.890;4.744;2022-09-09T04:01:10;14.80;99.90
8792;DHT22;4432;50.890;4.744;2022-09-09T04:03:36;14.80;99.90
8792;DHT22;4432;50.890;4.744;2022-09-09T04:06:03;14.80;99.90
8792;DHT22;4432;50.890;4.744;2022-09-09T04:08:30;14.80;99.90
8792;DHT22;4432;50.890;4.744;2022-09-09T04:10:59;14.70;99.90
8792;DHT22;4432;50.890;4.744;2022-09-09T04:13:26;14.70;99.90
8792;DHT22;4432;50.890;4.744;2022-09-09T04:15:56;14.70;99.90
8792;DHT22;4432;50.890;4.744;2022-09-09T04:18:23;14.70;99.90
8792;DHT22;4432;50.890;4.744;2022-09-09T04:20:50;14.70;99.90
8792;DHT22;4432;50.890;4.744;2022-09-09T04:23:16;14.70;99.90
8792;DHT22;4432;50.890;4.744;2022-09-09T04:25:51;14.70;99.90
8792;DHT22;4432;50.890;4.744;2022-09-09T04:28:19;14.70;99.90
8792;DHT22;4432;50.890;4.744;2022-09-09T04:30:46;14.60;99.90
8792;DHT22;4432;50.890;4.744;2022-09-09T04:33:13;14.70;99.90
8792;DHT22;4432;50.890;4.744;2022-09-09T04:35:43;14.70;99.90
8792;DHT22;4432;50.890;4.744;2022-09-09T04:38:09;14.70;99.90
8792;DHT22;4432;50.890;4.744;2022-09-09T04:40:35;14.80;99.90
8792;DHT22;4432;50.890;4.744;2022-09-09T04:43:02;14.80;99.90
8792;DHT22;4432;50.890;4.744;2022-09-09T04:45:31;14.90;99.90
8792;DHT22;4432;50.890;4.744;2022-09-09T04:47:57;14.90;99.90
8792;DHT22;4432;50.890;4.744;2022-09-09T04:50:22;14.90;99.90
8792;DHT22;4432;50.890;4.744;2022-09-09T04:52:48;14.90;99.90
8792;DHT22;4432;50.890;4.744;2022-09-09T04:55:14;14.90;99.90
8792;DHT22;4432;50.890;4.744;2022-09-09T04:57:40;14.80;99.90
8792;DHT22;4432;50.890;4.744;2022-09-09T05:00:06;14.80;99.90
8792;DHT22;4432;50.890;4.744;2022-09-09T05:02:33;14.70;99.90
8792;DHT22;4432;50.890;4.744;2022-09-09T05:05:02;14.70;99.90
8792;DHT22;4432;50.890;4.744;2022-09-09T05:07:28;14.70;99.90
8792;DHT22;4432;50.890;4.744;2022-09-09T05:09:54;14.70;99.90
8792;DHT22;4432;50.890;4.744;2022-09-09T05:12:20;14.70;99.90
8792;DHT22;4432;50.890;4.744;2022-09-09T05:14:46;14.80;99.90
8792;DHT22;4432;50.890;4.744;2022-09-09T05:17:11;14.80;99.90
8792;DHT22;4432;50.890;4.744;2022-09-09T05:19:38;14.80;99.90
8792;DHT22;4432;50.890;4.744;2022-09-09T05:22:04;14.80;99.90
8792;DHT22;4432;50.890;4.744;2022-09-09T05:24:30;14.80;99.90
8792;DHT22;4432;50.890;4.744;2022-09-09T05:26:58;14.80;99.90
8792;DHT22;4432;50.890;4.744;2022-09-09T05:29:25;14.80;99.90
8792;DHT22;4432;50.890;4.744;2022-09-09T05:31:53;14.90;99.90
8792;DHT22;4432;50.890;4.744;2022-09-09T05:34:18;15.00;99.90
8792;DHT22;4432;50.890;4.744;2022-09-09T05:36:44;15.00;99.90
8792;DHT22;4432;50.890;4.744;2022-09-09T05:39:10;15.10;99.90
8792;DHT22;4432;50.890;4.744;2022-09-09T05:41:37;15.20;99.90
8792;DHT22;4432;50.890;4.744;2022-09-09T05:44:03;15.20;99.90
8792;DHT22;4432;50.890;4.744;2022-09-09T05:46:29;15.30;99.90
8792;DHT22;4432;50.890;4.744;2022-09-09T05:48:55;15.30;99.90
8792;DHT22;4432;50.890;4.744;2022-09-09T05:51:23;15.40;99.90
8792;DHT22;4432;50.890;4.744;2022-09-09T05:53:50;15.50;99.90
8792;DHT22;4432;50.890;4.744;2022-09-09T05:56:21;15.60;99.90
8792;DHT22;4432;50.890;4.744;2022-09-09T05:58:48;15.80;99.90
8792;DHT22;4432;50.890;4.744;2022-09-09T06:01:25;15.90;99.90
8792;DHT22;4432;50.890;4.744;2022-09-09T06:03:54;16.00;99.90
8792;DHT22;4432;50.890;4.744;2022-09-09T06:06:22;16.10;99.90
8792;DHT22;4432;50.890;4.744;2022-09-09T06:08:51;16.20;99.90
8792;DHT22;4432;50.890;4.744;2022-09-09T06:11:19;16.10;99.90
8792;DHT22;4432;50.890;4.744;2022-09-09T06:13:45;16.20;99.90
8792;DHT22;4432;50.890;4.744;2022-09-09T06:16:17;16.20;99.90
8792;DHT22;4432;50.890;4.744;2022-09-09T06:18:43;16.10;99.90
8792;DHT22;4432;50.890;4.744;2022-09-09T06:21:16;16.10;99.90
8792;DHT22;4432;50.890;4.744;2022-09-09T06:23:42;16.00;99.90
8792;DHT22;4432;50.890;4.744;2022-09-09T06:26:14;16.00;99.90
8792;DHT22;4432;50.890;4.744;2022-09-09T06:28:40;15.90;99.90
8792;DHT22;4432;50.890;4.744;2022-09-09T06:31:10;16.00;99.90
8792;DHT22;4432;50.890;4.744;2022-09-09T06:33:37;16.10;99.90
8792;DHT22;4432;50.890;4.744;2022-09-09T06:36:12;16.10;99.90
8792;DHT22;4432;50.890;4.744;2022-09-09T06:38:38;16.20;99.90
8792;DHT22;4432;50.890;4.744;2022-09-09T06:41:04;16.30;99.90
8792;DHT22;4432;50.890;4.744;2022-09-09T06:43:31;16.40;99.90
8792;DHT22;4432;50.890;4.744;2022-09-09T06:46:09;16.40;99.90
8792;DHT22;4432;50.890;4.744;2022-09-09T06:48:35;16.50;99.90
8792;DHT22;4432;50.890;4.744;2022-09-09T06:51:06;16.50;99.90
8792;DHT22;4432;50.890;4.744;2022-09-09T06:53:34;16.70;99.90
8792;DHT22;4432;50.890;4.744;2022-09-09T06:58:42;16.90;99.90
8792;DHT22;4432;50.890;4.744;2022-09-09T07:01:13;16.90;99.90
8792;DHT22;4432;50.890;4.744;2022-09-09T07:03:40;17.00;99.90
8792;DHT22;4432;50.890;4.744;2022-09-09T07:06:09;16.90;99.90
8792;DHT22;4432;50.890;4.744;2022-09-09T07:08:40;17.00;99.90
8792;DHT22;4432;50.890;4.744;2022-09-09T07:11:07;17.00;99.90
8792;DHT22;4432;50.890;4.744;2022-09-09T07:13:34;17.00;99.90
8792;DHT22;4432;50.890;4.744;2022-09-09T07:16:19;16.90;99.90
8792;DHT22;4432;50.890;4.744;2022-09-09T07:18:46;16.80;99.90
8792;DHT22;4432;50.890;4.744;2022-09-09T07:21:13;16.70;99.90
8792;DHT22;4432;50.890;4.744;2022-09-09T07:23:40;16.70;99.90
8792;DHT22;4432;50.890;4.744;2022-09-09T07:26:18;16.70;99.90
8792;DHT22;4432;50.890;4.744;2022-09-09T07:28:47;16.70;99.90
8792;DHT22;4432;50.890;4.744;2022-09-09T07:31:25;16.70;99.90
8792;DHT22;4432;50.890;4.744;2022-09-09T07:33:51;16.70;99.90
8792;DHT22;4432;50.890;4.744;2022-09-09T07:36:21;16.80;99.90
8792;DHT22;4432;50.890;4.744;2022-09-09T07:38:50;16.90;99.90
8792;DHT22;4432;50.890;4.744;2022-09-09T07:41:44;17.00;99.90
8792;DHT22;4432;50.890;4.744;2022-09-09T07:44:13;16.80;99.90
8792;DHT22;4432;50.890;4.744;2022-09-09T07:46:39;16.80;99.90
8792;DHT22;4432;50.890;4.744;2022-09-09T07:49:07;16.80;99.90
8792;DHT22;4432;50.890;4.744;2022-09-09T07:51:39;16.80;99.90
8792;DHT22;4432;50.890;4.744;2022-09-09T07:54:11;16.80;99.90
8792;DHT22;4432;50.890;4.744;2022-09-09T07:56:38;16.80;99.90
8792;DHT22;4432;50.890;4.744;2022-09-09T07:59:04;16.90;99.90
8792;DHT22;4432;50.890;4.744;2022-09-09T08:01:43;16.90;99.90
8792;DHT22;4432;50.890;4.744;2022-09-09T08:04:15;17.10;99.90
8792;DHT22;4432;50.890;4.744;2022-09-09T08:06:53;17.20;99.90
8792;DHT22;4432;50.890;4.744;2022-09-09T08:09:20;17.30;99.90
8792;DHT22;4432;50.890;4.744;2022-09-09T08:11:47;17.40;99.90
8792;DHT22;4432;50.890;4.744;2022-09-09T08:14:13;17.40;99.90
8792;DHT22;4432;50.890;4.744;2022-09-09T08:16:42;17.50;99.90
8792;DHT22;4432;50.890;4.744;2022-09-09T08:19:08;17.60;99.90
8792;DHT22;4432;50.890;4.744;2022-09-09T08:21:36;17.70;99.90
8792;DHT22;4432;50.890;4.744;2022-09-09T08:24:03;17.80;99.90
8792;DHT22;4432;50.890;4.744;2022-09-09T08:26:41;17.80;99.90
8792;DHT22;4432;50.890;4.744;2022-09-09T08:29:08;17.70;99.90
8792;DHT22;4432;50.890;4.744;2022-09-09T08:31:36;18.00;99.90
8792;DHT22;4432;50.890;4.744;2022-09-09T08:34:04;18.10;99.90
8792;DHT22;4432;50.890;4.744;2022-09-09T08:36:32;18.00;99.90
8792;DHT22;4432;50.890;4.744;2022-09-09T08:39:01;18.20;99.90
8792;DHT22;4432;50.890;4.744;2022-09-09T08:44:56;18.20;99.90
8792;DHT22;4432;50.890;4.744;2022-09-09T08:50:25;18.00;99.90
8792;DHT22;4432;50.890;4.744;2022-09-09T08:53:21;17.90;99.90
8792;DHT22;4432;50.890;4.744;2022-09-09T08:55:59;17.90;99.90
8792;DHT22;4432;50.890;4.744;2022-09-09T08:58:28;17.90;99.90
8792;DHT22;4432;50.890;4.744;2022-09-09T09:12:22;17.10;99.90
8792;DHT22;4432;50.890;4.744;2022-09-09T09:14:49;17.00;99.90
8792;DHT22;4432;50.890;4.744;2022-09-09T09:17:18;17.10;99.90
8792;DHT22;4432;50.890;4.744;2022-09-09T09:19:45;16.90;99.90
8792;DHT22;4432;50.890;4.744;2022-09-09T09:27:34;16.80;99.90
8792;DHT22;4432;50.890;4.744;2022-09-09T09:30:10;17.00;99.90
8792;DHT22;4432;50.890;4.744;2022-09-09T09:32:39;17.00;99.90
8792;DHT22;4432;50.890;4.744;2022-09-09T09:35:12;17.00;99.90
8792;DHT22;4432;50.890;4.744;2022-09-09T09:37:40;17.00;99.90
8792;DHT22;4432;50.890;4.744;2022-09-09T09:40:20;16.90;99.90
8792;DHT22;4432;50.890;4.744;2022-09-09T09:43:01;17.00;99.90
8792;DHT22;4432;50.890;4.744;2022-09-09T09:45:34;17.00;99.90
8792;DHT22;4432;50.890;4.744;2022-09-09T09:48:05;17.00;99.90
8792;DHT22;4432;50.890;4.744;2022-09-09T09:50:32;17.00;99.90
8792;DHT22;4432;50.890;4.744;2022-09-09T09:56:01;16.80;99.90
8792;DHT22;4432;50.890;4.744;2022-09-09T09:58:31;16.80;99.90
8792;DHT22;4432;50.890;4.744;2022-09-09T10:00:59;16.80;99.90
8792;DHT22;4432;50.890;4.744;2022-09-09T10:03:33;17.00;99.90
8792;DHT22;4432;50.890;4.744;2022-09-09T10:06:05;16.90;99.90
8792;DHT22;4432;50.890;4.744;2022-09-09T10:08:43;17.20;99.90
8792;DHT22;4432;50.890;4.744;2022-09-09T10:11:28;17.10;99.90
8792;DHT22;4432;50.890;4.744;2022-09-09T10:14:19;17.10;99.90
8792;DHT22;4432;50.890;4.744;2022-09-09T10:19:29;17.40;99.90
8792;DHT22;4432;50.890;4.744;2022-09-09T10:22:11;17.60;99.90
8792;DHT22;4432;50.890;4.744;2022-09-09T10:31:03;17.30;99.90
8792;DHT22;4432;50.890;4.744;2022-09-09T10:36:47;17.40;99.90
8792;DHT22;4432;50.890;4.744;2022-09-09T10:39:37;17.40;99.90
8792;DHT22;4432;50.890;4.744;2022-09-09T10:42:11;17.40;99.90
8792;DHT22;4432;50.890;4.744;2022-09-09T10:47:39;17.50;99.90
8792;DHT22;4432;50.890;4.744;2022-09-09T10:55:24;17.30;99.90
8792;DHT22;4432;50.890;4.744;2022-09-09T10:57:56;17.30;99.90
8792;DHT22;4432;50.890;4.744;2022-09-09T11:00:44;17.30;99.90
8792;DHT22;4432;50.890;4.744;2022-09-09T11:03:21;17.30;99.90
8792;DHT22;4432;50.890;4.744;2022-09-09T11:06:02;17.40;99.90
8792;DHT22;4432;50.890;4.744;2022-09-09T11:08:31;17.70;99.90
8792;DHT22;4432;50.890;4.744;2022-09-09T11:11:13;18.00;99.90
8792;DHT22;4432;50.890;4.744;2022-09-09T11:21:55;18.30;99.90
8792;DHT22;4432;50.890;4.744;2022-09-09T11:24:40;18.20;99.90
8792;DHT22;4432;50.890;4.744;2022-09-09T11:35:55;19.10;99.90
8792;DHT22;4432;50.890;4.744;2022-09-09T11:38:44;19.10;99.90
8792;DHT22;4432;50.890;4.744;2022-09-09T11:41:11;19.10;99.90
8792;DHT22;4432;50.890;4.744;2022-09-09T11:43:53;19.50;99.90
8792;DHT22;4432;50.890;4.744;2022-09-09T11:46:21;19.90;99.90
8792;DHT22;4432;50.890;4.744;2022-09-09T11:49:03;20.20;99.90
8792;DHT22;4432;50.890;4.744;2022-09-09T11:51:31;20.30;99.90
8792;DHT22;4432;50.890;4.744;2022-09-09T11:54:04;20.20;99.90
8792;DHT22;4432;50.890;4.744;2022-09-09T11:56:48;20.40;99.90
8792;DHT22;4432;50.890;4.744;2022-09-09T11:59:32;20.40;99.90
8792;DHT22;4432;50.890;4.744;2022-09-09T12:02:19;20.40;99.90
8792;DHT22;4432;50.890;4.744;2022-09-09T12:07:28;20.30;99.90
8792;DHT22;4432;50.890;4.744;2022-09-09T12:12:34;20.00;99.90
8792;DHT22;4432;50.890;4.744;2022-09-09T12:15:03;20.10;99.90
8792;DHT22;4432;50.890;4.744;2022-09-09T12:17:43;20.40;99.90
8792;DHT22;4432;50.890;4.744;2022-09-09T12:25:44;20.30;99.90
8792;DHT22;4432;50.890;4.744;2022-09-09T12:28:17;20.10;99.90
8792;DHT22;4432;50.890;4.744;2022-09-09T12:33:16;20.10;99.90
8792;DHT22;4432;50.890;4.744;2022-09-09T12:35:44;20.10;99.90
8792;DHT22;4432;50.890;4.744;2022-09-09T12:38:21;20.30;99.90
8792;DHT22;4432;50.890;4.744;2022-09-09T12:40:56;20.20;99.90
8792;DHT22;4432;50.890;4.744;2022-09-09T12:43:24;20.30;99.90
8792;DHT22;4432;50.890;4.744;2022-09-09T12:46:03;20.50;99.90
8792;DHT22;4432;50.890;4.744;2022-09-09T12:48:40;20.50;99.90
8792;DHT22;4432;50.890;4.744;2022-09-09T12:51:26;20.70;99.90
8792;DHT22;4432;50.890;4.744;2022-09-09T12:53:52;20.60;99.90
8792;DHT22;4432;50.890;4.744;2022-09-09T12:56:21;20.60;99.90
8792;DHT22;4432;50.890;4.744;2022-09-09T12:58:50;20.60;99.90
8792;DHT22;4432;50.890;4.744;2022-09-09T13:01:23;20.60;99.90
8792;DHT22;4432;50.890;4.744;2022-09-09T13:03:49;20.30;99.90
8792;DHT22;4432;50.890;4.744;2022-09-09T13:06:33;19.90;99.90
8792;DHT22;4432;50.890;4.744;2022-09-09T13:09:01;20.00;99.90
8792;DHT22;4432;50.890;4.744;2022-09-09T13:11:39;20.40;99.90
8792;DHT22;4432;50.890;4.744;2022-09-09T13:14:28;20.70;99.90
8792;DHT22;4432;50.890;4.744;2022-09-09T13:16:59;20.90;99.90
8792;DHT22;4432;50.890;4.744;2022-09-09T13:19:26;20.90;99.90
8792;DHT22;4432;50.890;4.744;2022-09-09T13:21:54;20.80;99.90
8792;DHT22;4432;50.890;4.744;2022-09-09T13:24:33;21.00;99.90
8792;DHT22;4432;50.890;4.744;2022-09-09T13:30:21;21.50;99.90
8792;DHT22;4432;50.890;4.744;2022-09-09T13:33:00;21.70;99.90
8792;DHT22;4432;50.890;4.744;2022-09-09T13:35:26;21.20;99.90
8792;DHT22;4432;50.890;4.744;2022-09-09T13:37:52;21.30;99.90
8792;DHT22;4432;50.890;4.744;2022-09-09T13:40:20;21.20;99.90
8792;DHT22;4432;50.890;4.744;2022-09-09T13:42:55;21.40;99.90
8792;DHT22;4432;50.890;4.744;2022-09-09T13:45:24;21.20;99.90
8792;DHT22;4432;50.890;4.744;2022-09-09T13:47:53;21.10;99.90
8792;DHT22;4432;50.890;4.744;2022-09-09T13:50:30;21.10;99.90
8792;DHT22;4432;50.890;4.744;2022-09-09T13:52:57;20.80;99.90
8792;DHT22;4432;50.890;4.744;2022-09-09T13:55:27;20.70;99.90
8792;DHT22;4432;50.890;4.744;2022-09-09T14:00:22;21.00;99.90
8792;DHT22;4432;50.890;4.744;2022-09-09T14:02:48;20.80;99.90
8792;DHT22;4432;50.890;4.744;2022-09-09T14:05:14;20.90;99.90
8792;DHT22;4432;50.890;4.744;2022-09-09T14:07:42;20.60;99.90
8792;DHT22;4432;50.890;4.744;2022-09-09T14:10:09;20.60;99.90
8792;DHT22;4432;50.890;4.744;2022-09-09T14:12:35;20.50;99.90
8792;DHT22;4432;50.890;4.744;2022-09-09T14:15:03;20.60;99.90
8792;DHT22;4432;50.890;4.744;2022-09-09T14:17:29;20.60;99.90
8792;DHT22;4432;50.890;4.744;2022-09-09T14:19:55;20.90;99.90
8792;DHT22;4432;50.890;4.744;2022-09-09T14:22:22;21.10;99.90
8792;DHT22;4432;50.890;4.744;2022-09-09T14:24:48;21.40;99.90
8792;DHT22;4432;50.890;4.744;2022-09-09T14:27:14;21.40;99.90
8792;DHT22;4432;50.890;4.744;2022-09-09T14:29:40;21.10;99.90
8792;DHT22;4432;50.890;4.744;2022-09-09T14:32:06;21.00;99.90
8792;DHT22;4432;50.890;4.744;2022-09-09T14:34:31;20.80;99.90
8792;DHT22;4432;50.890;4.744;2022-09-09T14:36:58;20.90;99.90
8792;DHT22;4432;50.890;4.744;2022-09-09T14:39:24;21.00;99.90
8792;DHT22;4432;50.890;4.744;2022-09-09T14:41:49;21.00;99.90
8792;DHT22;4432;50.890;4.744;2022-09-09T14:44:15;21.10;99.90
8792;DHT22;4432;50.890;4.744;2022-09-09T14:46:44;21.10;99.90
8792;DHT22;4432;50.890;4.744;2022-09-09T14:49:10;21.00;99.90
8792;DHT22;4432;50.890;4.744;2022-09-09T14:51:36;20.90;99.90
8792;DHT22;4432;50.890;4.744;2022-09-09T14:54:02;20.80;99.90
8792;DHT22;4432;50.890;4.744;2022-09-09T14:56:30;20.80;99.90
8792;DHT22;4432;50.890;4.744;2022-09-09T14:58:58;20.70;99.90
8792;DHT22;4432;50.890;4.744;2022-09-09T15:01:26;20.80;99.90
8792;DHT22;4432;50.890;4.744;2022-09-09T15:03:58;21.00;99.90
8792;DHT22;4432;50.890;4.744;2022-09-09T15:06:25;21.20;99.90
8792;DHT22;4432;50.890;4.744;2022-09-09T15:08:53;21.30;99.90
8792;DHT22;4432;50.890;4.744;2022-09-09T15:11:20;21.30;99.90
8792;DHT22;4432;50.890;4.744;2022-09-09T15:13:46;21.20;99.90
8792;DHT22;4432;50.890;4.744;2022-09-09T15:16:15;21.20;99.90
8792;DHT22;4432;50.890;4.744;2022-09-09T15:18:41;21.20;99.90
8792;DHT22;4432;50.890;4.744;2022-09-09T15:21:28;21.10;99.90
8792;DHT22;4432;50.890;4.744;2022-09-09T15:23:55;21.10;99.90
8792;DHT22;4432;50.890;4.744;2022-09-09T15:26:22;21.10;99.90
8792;DHT22;4432;50.890;4.744;2022-09-09T15:28:48;21.20;99.90
8792;DHT22;4432;50.890;4.744;2022-09-09T15:31:26;21.20;99.90
8792;DHT22;4432;50.890;4.744;2022-09-09T15:34:11;21.10;99.90
8792;DHT22;4432;50.890;4.744;2022-09-09T15:36:44;20.90;99.90
8792;DHT22;4432;50.890;4.744;2022-09-09T15:39:13;20.80;99.90
8792;DHT22;4432;50.890;4.744;2022-09-09T15:41:45;20.70;99.90
8792;DHT22;4432;50.890;4.744;2022-09-09T15:44:11;20.70;99.90
8792;DHT22;4432;50.890;4.744;2022-09-09T15:46:46;20.70;99.90
8792;DHT22;4432;50.890;4.744;2022-09-09T15:49:16;20.70;99.90
8792;DHT22;4432;50.890;4.744;2022-09-09T15:51:47;20.70;99.90
8792;DHT22;4432;50.890;4.744;2022-09-09T15:54:17;20.80;99.90
8792;DHT22;4432;50.890;4.744;2022-09-09T15:56:47;21.00;99.90
8792;DHT22;4432;50.890;4.744;2022-09-09T15:59:15;20.90;99.90
8792;DHT22;4432;50.890;4.744;2022-09-09T16:01:41;20.80;99.90
8792;DHT22;4432;50.890;4.744;2022-09-09T16:04:09;20.70;99.90
8792;DHT22;4432;50.890;4.744;2022-09-09T16:06:35;20.60;99.90
8792;DHT22;4432;50.890;4.744;2022-09-09T16:09:05;20.60;99.90
8792;DHT22;4432;50.890;4.744;2022-09-09T16:11:34;20.60;99.90
8792;DHT22;4432;50.890;4.744;2022-09-09T16:14:01;20.70;99.90
8792;DHT22;4432;50.890;4.744;2022-09-09T16:16:29;20.60;99.90
8792;DHT22;4432;50.890;4.744;2022-09-09T16:18:57;20.70;99.90
8792;DHT22;4432;50.890;4.744;2022-09-09T16:21:28;20.70;99.90
8792;DHT22;4432;50.890;4.744;2022-09-09T16:23:55;20.60;99.90
8792;DHT22;4432;50.890;4.744;2022-09-09T16:26:22;20.30;99.90
8792;DHT22;4432;50.890;4.744;2022-09-09T16:28:48;20.20;99.90
8792;DHT22;4432;50.890;4.744;2022-09-09T16:31:20;20.10;99.90
8792;DHT22;4432;50.890;4.744;2022-09-09T16:33:47;19.80;99.90
8792;DHT22;4432;50.890;4.744;2022-09-09T16:36:18;19.80;99.90
8792;DHT22;4432;50.890;4.744;2022-09-09T16:38:45;19.70;99.90
8792;DHT22;4432;50.890;4.744;2022-09-09T16:41:12;19.70;99.90
8792;DHT22;4432;50.890;4.744;2022-09-09T16:43:38;19.70;99.90
8792;DHT22;4432;50.890;4.744;2022-09-09T16:46:19;19.70;99.90
8792;DHT22;4432;50.890;4.744;2022-09-09T16:48:46;19.70;99.90
8792;DHT22;4432;50.890;4.744;2022-09-09T16:51:21;19.60;99.90
8792;DHT22;4432;50.890;4.744;2022-09-09T16:53:50;19.50;99.90
8792;DHT22;4432;50.890;4.744;2022-09-09T16:56:22;19.50;99.90
8792;DHT22;4432;50.890;4.744;2022-09-09T16:58:57;19.40;99.90
8792;DHT22;4432;50.890;4.744;2022-09-09T17:01:25;19.30;99.90
8792;DHT22;4432;50.890;4.744;2022-09-09T17:03:55;19.00;99.90
8792;DHT22;4432;50.890;4.744;2022-09-09T17:06:22;18.70;99.90
8792;DHT22;4432;50.890;4.744;2022-09-09T17:08:59;18.50;99.90
8792;DHT22;4432;50.890;4.744;2022-09-09T17:11:27;18.40;99.90
8792;DHT22;4432;50.890;4.744;2022-09-09T17:13:55;18.30;99.90
8792;DHT22;4432;50.890;4.744;2022-09-09T17:16:22;18.20;99.90
8792;DHT22;4432;50.890;4.744;2022-09-09T17:18:49;18.20;99.90
8792;DHT22;4432;50.890;4.744;2022-09-09T17:21:18;18.30;99.90
8792;DHT22;4432;50.890;4.744;2022-09-09T17:23:45;18.30;99.90
8792;DHT22;4432;50.890;4.744;2022-09-09T17:26:13;18.30;99.90
8792;DHT22;4432;50.890;4.744;2022-09-09T17:28:41;18.30;99.90
8792;DHT22;4432;50.890;4.744;2022-09-09T17:31:08;18.30;99.90
8792;DHT22;4432;50.890;4.744;2022-09-09T17:33:36;18.30;99.90
8792;DHT22;4432;50.890;4.744;2022-09-09T17:36:09;18.20;99.90
8792;DHT22;4432;50.890;4.744;2022-09-09T17:38:36;18.20;99.90
8792;DHT22;4432;50.890;4.744;2022-09-09T17:41:07;18.10;99.90
8792;DHT22;4432;50.890;4.744;2022-09-09T17:43:33;18.10;99.90
8792;DHT22;4432;50.890;4.744;2022-09-09T17:46:29;18.00;99.90
8792;DHT22;4432;50.890;4.744;2022-09-09T17:48:58;18.00;99.90
8792;DHT22;4432;50.890;4.744;2022-09-09T17:51:26;17.90;99.90
8792;DHT22;4432;50.890;4.744;2022-09-09T17:54:00;17.90;99.90
8792;DHT22;4432;50.890;4.744;2022-09-09T17:56:28;17.70;99.90
8792;DHT22;4432;50.890;4.744;2022-09-09T17:58:57;17.70;99.90
8792;DHT22;4432;50.890;4.744;2022-09-09T18:01:25;17.60;99.90
8792;DHT22;4432;50.890;4.744;2022-09-09T18:03:53;17.60;99.90
8792;DHT22;4432;50.890;4.744;2022-09-09T18:06:20;17.40;99.90
8792;DHT22;4432;50.890;4.744;2022-09-09T18:08:53;17.40;99.90
8792;DHT22;4432;50.890;4.744;2022-09-09T18:11:21;17.30;99.90
8792;DHT22;4432;50.890;4.744;2022-09-09T18:13:55;17.20;99.90
8792;DHT22;4432;50.890;4.744;2022-09-09T18:16:23;17.10;99.90
8792;DHT22;4432;50.890;4.744;2022-09-09T18:18:51;17.00;99.90
8792;DHT22;4432;50.890;4.744;2022-09-09T18:21:18;17.00;99.90
8792;DHT22;4432;50.890;4.744;2022-09-09T18:23:46;16.90;99.90
8792;DHT22;4432;50.890;4.744;2022-09-09T18:26:16;16.90;99.90
8792;DHT22;4432;50.890;4.744;2022-09-09T18:28:47;16.80;99.90
8792;DHT22;4432;50.890;4.744;2022-09-09T18:31:15;16.70;99.90